Adams, Illinois
Current Conditions -  °F | °C
As of 3:45 PM on Wednesday 26 Nov 2014 (Local Time) from KUIN Reporting Station
Haze Haze  
Wind Chill: 25°   Ceiling: 600
Heat Index: 32°   Visibility: 1.5mi
Dew Point: 30°   Wind: 8mph
Humidity: 92%   Direction: 100°E
Pressure: 30"   Gusts: NA
Location:  39.8875°N, 91.0352°W
Report Text: KUIN 262145Z AUTO 10007KT 1 1/2SM BR BKN006 OVC010 00/M01 A3000 RMK AO2 UPE04FZRAB04E39 CIG 004V010 P0000 I1003 T00001011
Loading
Personal Weather Stations






























Interactive Weather Map New forecast layout! Learn more

10-Day Weather Forecast

Advertisements
Track Severe Weather on mobile